Time;durP1;ratioP1;P1;durP2;ratioP2;P2;SDS_P1;SDS_P2;PMS_P1;PMS_P2;Temp;Humidity;BMP_temperature;BMP_pressure;BME280_temperature;BME280_humidity;BME280_pressure;Samples;Min_cycle;Max_cycle;Signal;HPM_P1;HPM_P2
2022/07/09 00:01:00;;;;;;;6.07;3.63;;;28.30;1.00;;;;;;5096569;28;20020;-59
2022/07/09 00:03:26;;;;;;;6.60;4.10;;;28.20;1.00;;;;;;5114981;28;20501;-59
2022/07/09 00:05:52;;;;;;;6.45;3.97;;;28.00;1.00;;;;;;5115218;28;20342;-59
2022/07/09 00:08:18;;;;;;;5.03;3.42;;;28.00;1.00;;;;;;5095960;28;20035;-59
2022/07/09 00:10:43;;;;;;;7.13;4.05;;;28.00;1.00;;;;;;5115027;28;20272;-59
2022/07/09 00:13:09;;;;;;;6.28;3.72;;;27.90;1.00;;;;;;5114160;28;20120;-60
2022/07/09 00:15:35;;;;;;;4.45;3.45;;;27.90;1.00;;;;;;5114884;28;20031;-59
2022/07/09 00:18:01;;;;;;;7.13;4.07;;;27.90;1.00;;;;;;5095339;28;20455;-60
2022/07/09 00:20:27;;;;;;;5.05;3.63;;;27.90;1.00;;;;;;5114606;28;20032;-60
2022/07/09 00:22:52;;;;;;;6.63;3.50;;;27.80;1.00;;;;;;5093503;28;20084;-60
2022/07/09 00:25:18;;;;;;;7.57;3.55;;;27.80;1.00;;;;;;5113004;28;20040;-59
2022/07/09 00:27:44;;;;;;;5.88;3.53;;;27.70;1.00;;;;;;5105231;28;20039;-58
2022/07/09 00:30:10;;;;;;;6.75;3.72;;;27.80;1.00;;;;;;5109882;28;20023;-59
2022/07/09 00:32:35;;;;;;;5.82;3.90;;;27.80;1.00;;;;;;5113889;28;20113;-60
2022/07/09 00:35:01;;;;;;;4.88;4.40;;;27.60;1.00;;;;;;5096001;28;20040;-59
2022/07/09 00:37:26;;;;;;;6.57;4.28;;;27.50;1.00;;;;;;5113437;28;20080;-59
2022/07/09 00:39:52;;;;;;;6.60;3.60;;;27.50;1.00;;;;;;5114306;28;20027;-60
2022/07/09 00:42:18;;;;;;;4.45;3.80;;;27.40;1.00;;;;;;5113371;28;20028;-59
2022/07/09 00:44:43;;;;;;;9.75;3.53;;;27.30;1.00;;;;;;5114157;28;20422;-59
2022/07/09 00:47:09;;;;;;;4.47;3.30;;;27.40;1.00;;;;;;5113504;28;20570;-60
2022/07/09 00:49:41;;;;;;;3.63;3.00;;;27.40;1.00;;;;;;5113047;28;20411;-59
2022/07/09 00:52:09;;;;;;;5.95;3.55;;;27.40;1.00;;;;;;5112813;28;20024;-60
2022/07/09 00:54:36;;;;;;;3.85;2.50;;;27.30;1.00;;;;;;5114042;28;20467;-59
2022/07/09 00:57:05;;;;;;;3.95;2.33;;;27.20;1.00;;;;;;5113053;28;20392;-59
2022/07/09 00:59:32;;;;;;;4.10;2.70;;;27.20;1.00;;;;;;5114072;28;20018;-59
2022/07/09 01:01:58;;;;;;;4.10;2.35;;;27.20;1.00;;;;;;5112975;28;20059;-59
2022/07/09 01:04:24;;;;;;;2.95;2.05;;;27.30;1.00;;;;;;5114056;28;20326;-60
2022/07/09 01:06:49;;;;;;;6.53;2.17;;;27.30;1.00;;;;;;5113143;28;20107;-59
2022/07/09 01:09:15;;;;;;;8.07;1.85;;;27.10;1.00;;;;;;5113100;28;20387;-59
2022/07/09 01:11:41;;;;;;;3.10;1.95;;;27.10;1.00;;;;;;5112469;28;20084;-59
2022/07/09 01:14:06;;;;;;;2.15;1.70;;;27.10;1.00;;;;;;5112987;28;20032;-59
2022/07/09 01:16:33;;;;;;;4.72;2.03;;;27.10;1.00;;;;;;5092716;28;20070;-59
2022/07/09 01:18:58;;;;;;;2.17;1.67;;;27.10;1.00;;;;;;5112866;28;20027;-60
2022/07/09 01:21:24;;;;;;;4.60;1.70;;;27.00;1.00;;;;;;5112142;28;20024;-59
2022/07/09 01:23:50;;;;;;;1.63;1.30;;;27.00;1.00;;;;;;5112855;28;20461;-59
2022/07/09 01:26:16;;;;;;;3.10;1.48;;;27.00;1.00;;;;;;5113335;28;20122;-60
2022/07/09 01:28:42;;;;;;;1.65;1.55;;;27.00;1.00;;;;;;5112345;28;20038;-59
2022/07/09 01:31:07;;;;;;;3.47;1.48;;;27.00;1.00;;;;;;5113502;28;20020;-59
2022/07/09 01:33:33;;;;;;;4.18;1.60;;;27.00;1.00;;;;;;5093966;28;20357;-60
2022/07/09 01:35:59;;;;;;;1.80;1.58;;;26.90;1.00;;;;;;5113306;28;20031;-60
2022/07/09 01:38:25;;;;;;;2.58;1.58;;;26.80;1.00;;;;;;5111535;28;20156;-60
2022/07/09 01:40:51;;;;;;;3.13;1.60;;;26.80;1.00;;;;;;5113171;28;20094;-60
2022/07/09 01:43:16;;;;;;;2.45;1.60;;;26.60;1.00;;;;;;5093032;28;20028;-60
2022/07/09 01:45:42;;;;;;;1.77;1.48;;;26.60;1.00;;;;;;5113000;28;20016;-60
2022/07/09 01:48:08;;;;;;;1.80;1.10;;;26.70;1.00;;;;;;5110583;28;20027;-60
2022/07/09 01:50:33;;;;;;;3.67;1.60;;;26.70;1.00;;;;;;5128244;27;20054;-59
2022/07/09 01:52:59;;;;;;;3.90;1.35;;;26.70;1.00;;;;;;5099452;28;20037;-60
2022/07/09 01:55:25;;;;;;;4.53;1.23;;;26.70;1.00;;;;;;5113230;28;20078;-60
2022/07/09 01:57:50;;;;;;;1.55;1.00;;;26.70;1.00;;;;;;5112026;28;20059;-60
2022/07/09 02:00:18;;;;;;;3.17;1.38;;;26.80;1.00;;;;;;5112495;28;20027;-60
2022/07/09 02:02:44;;;;;;;1.23;1.13;;;26.70;1.00;;;;;;5111569;28;20019;-59
2022/07/09 02:05:09;;;;;;;2.35;1.55;;;26.70;1.00;;;;;;5098314;28;20035;-60
2022/07/09 02:07:35;;;;;;;3.42;1.45;;;26.60;1.00;;;;;;5111750;28;20384;-60
2022/07/09 02:10:02;;;;;;;3.30;1.50;;;26.60;1.00;;;;;;5112482;28;20055;-60
2022/07/09 02:12:28;;;;;;;3.22;1.42;;;26.60;1.00;;;;;;5112074;28;20031;-60
2022/07/09 02:14:53;;;;;;;3.42;1.58;;;26.70;1.00;;;;;;5112375;28;20055;-60
2022/07/09 02:17:19;;;;;;;1.05;1.02;;;26.50;1.00;;;;;;5111312;28;20500;-59
2022/07/09 02:19:44;;;;;;;3.05;1.40;;;26.60;1.00;;;;;;5112606;28;20046;-60
2022/07/09 02:22:10;;;;;;;2.97;1.52;;;26.50;1.00;;;;;;5111307;28;20051;-60
2022/07/09 02:24:36;;;;;;;3.17;1.45;;;26.60;1.00;;;;;;5127756;27;20054;-60
2022/07/09 02:27:01;;;;;;;2.10;1.10;;;26.60;1.00;;;;;;5112513;28;20015;-60
2022/07/09 02:29:27;;;;;;;4.38;1.27;;;26.60;1.00;;;;;;5111710;28;20032;-60
2022/07/09 02:31:55;;;;;;;1.40;1.30;;;26.60;1.00;;;;;;5112376;28;20037;-60
2022/07/09 02:34:21;;;;;;;4.53;1.23;;;26.60;1.00;;;;;;5111348;28;20067;-60
2022/07/09 02:36:46;;;;;;;2.65;1.50;;;26.70;1.00;;;;;;5112275;28;20108;-60
2022/07/09 02:39:12;;;;;;;2.50;1.33;;;26.80;1.00;;;;;;5110370;28;20055;-60
2022/07/09 02:41:38;;;;;;;1.30;1.20;;;26.80;1.00;;;;;;5104352;28;20016;-60
2022/07/09 02:44:03;;;;;;;3.75;1.55;;;26.80;1.00;;;;;;5110951;28;20038;-60
2022/07/09 02:46:29;;;;;;;1.00;0.98;;;26.70;1.00;;;;;;5111600;28;20081;-60
2022/07/09 02:48:54;;;;;;;3.83;1.55;;;26.70;1.00;;;;;;5090406;28;20118;-60
2022/07/09 02:51:20;;;;;;;3.60;1.50;;;26.70;1.00;;;;;;5108372;28;20115;-60
2022/07/09 02:53:46;;;;;;;1.27;1.17;;;26.70;1.00;;;;;;5106269;28;20039;-61
2022/07/09 02:56:11;;;;;;;2.45;1.08;;;26.80;1.00;;;;;;5110732;28;20031;-61
2022/07/09 02:58:37;;;;;;;2.83;1.50;;;26.80;1.00;;;;;;5109534;28;20518;-60
2022/07/09 03:01:05;;;;;;;1.88;1.77;;;26.80;1.00;;;;;;5075581;28;20496;-60
2022/07/09 03:03:31;;;;;;;1.45;1.35;;;26.70;1.00;;;;;;5111197;28;20051;-60
2022/07/09 03:05:57;;;;;;;1.73;1.48;;;26.80;1.00;;;;;;5111073;28;20338;-60
2022/07/09 03:08:22;;;;;;;1.55;1.45;;;26.80;1.00;;;;;;5109710;28;20046;-60
2022/07/09 03:10:51;;;;;;;1.83;1.50;;;26.70;1.00;;;;;;5093603;28;20020;-60
2022/07/09 03:13:17;;;;;;;6.13;1.63;;;26.60;1.00;;;;;;5113859;28;20035;-60
2022/07/09 03:15:42;;;;;;;5.93;1.70;;;26.60;1.00;;;;;;5115450;28;20034;-59
2022/07/09 03:18:08;;;;;;;2.80;1.20;;;26.60;1.00;;;;;;5095147;28;20112;-61
2022/07/09 03:20:37;;;;;;;2.13;1.60;;;26.70;1.00;;;;;;5115437;28;20027;-60
2022/07/09 03:23:03;;;;;;;1.45;1.20;;;26.70;1.00;;;;;;5114970;28;20457;-60
2022/07/09 03:25:29;;;;;;;1.63;1.30;;;26.80;1.00;;;;;;5115758;28;20039;-60
2022/07/09 03:27:55;;;;;;;1.65;1.40;;;26.70;1.00;;;;;;5115431;28;20554;-59
2022/07/09 03:30:20;;;;;;;2.80;1.38;;;26.60;1.00;;;;;;5114599;28;20030;-60
2022/07/09 03:32:46;;;;;;;3.25;1.15;;;26.50;1.00;;;;;;5115712;28;20012;-60
2022/07/09 03:35:12;;;;;;;2.55;1.30;;;26.40;1.00;;;;;;5114958;28;20019;-59
2022/07/09 03:37:37;;;;;;;5.40;1.85;;;26.50;1.00;;;;;;5115516;28;20035;-60
2022/07/09 03:40:04;;;;;;;1.63;1.30;;;26.40;1.00;;;;;;5114834;28;20011;-59
2022/07/09 03:42:30;;;;;;;3.80;1.40;;;26.50;1.00;;;;;;5115573;28;20098;-60
2022/07/09 03:44:56;;;;;;;2.45;1.45;;;26.50;1.00;;;;;;5114383;28;20039;-59
2022/07/09 03:47:21;;;;;;;2.00;1.27;;;26.50;1.00;;;;;;5114376;28;20024;-59
2022/07/09 03:49:47;;;;;;;1.95;1.30;;;26.40;1.00;;;;;;5114490;28;20539;-59
2022/07/09 03:52:12;;;;;;;4.47;1.92;;;26.40;1.00;;;;;;5115572;28;20024;-59
2022/07/09 03:54:38;;;;;;;1.60;1.48;;;26.40;1.00;;;;;;5114744;28;20445;-59
2022/07/09 03:57:04;;;;;;;2.70;1.83;;;26.40;1.00;;;;;;5115045;28;20047;-59
2022/07/09 03:59:30;;;;;;;3.88;2.13;;;26.40;1.00;;;;;;5096718;28;20106;-59
2022/07/09 04:01:55;;;;;;;2.17;1.52;;;26.40;1.00;;;;;;5081405;28;20049;-58
2022/07/09 04:04:21;;;;;;;2.90;1.73;;;26.30;1.00;;;;;;5114801;28;20024;-59
2022/07/09 04:06:46;;;;;;;1.85;1.42;;;26.40;1.00;;;;;;5114213;28;20031;-59
2022/07/09 04:09:12;;;;;;;2.85;1.70;;;26.40;1.00;;;;;;5114929;28;20307;-60
2022/07/09 04:11:37;;;;;;;2.10;1.50;;;26.40;1.00;;;;;;5113959;28;20115;-60
2022/07/09 04:14:03;;;;;;;3.15;1.35;;;26.40;1.00;;;;;;5114971;28;20034;-60
2022/07/09 04:16:29;;;;;;;3.00;1.40;;;26.40;1.00;;;;;;5112935;28;20038;-60
2022/07/09 04:18:55;;;;;;;1.48;1.33;;;26.40;1.00;;;;;;5114068;28;20042;-60
2022/07/09 04:21:23;;;;;;;2.58;1.15;;;26.40;1.00;;;;;;5114039;28;20031;-60
2022/07/09 04:23:49;;;;;;;1.60;1.42;;;26.40;1.00;;;;;;5112551;28;20036;-60
2022/07/09 04:26:15;;;;;;;2.53;1.55;;;26.40;1.00;;;;;;5114047;28;20500;-60
2022/07/09 04:28:41;;;;;;;2.90;1.45;;;26.40;1.00;;;;;;5114544;28;20023;-61
2022/07/09 04:31:07;;;;;;;2.15;1.30;;;26.40;1.00;;;;;;5113530;28;20019;-60
2022/07/09 04:33:33;;;;;;;4.57;1.38;;;26.50;1.00;;;;;;5114616;28;20100;-60
2022/07/09 04:35:58;;;;;;;1.75;1.42;;;26.50;1.00;;;;;;5095290;28;20177;-60
2022/07/09 04:38:24;;;;;;;2.50;1.27;;;26.60;1.00;;;;;;5114629;28;20473;-60
2022/07/09 04:40:50;;;;;;;2.55;1.38;;;26.50;1.00;;;;;;5113725;28;21910;-60
2022/07/09 04:43:17;;;;;;;1.83;1.45;;;26.50;1.00;;;;;;5114384;28;20047;-60
2022/07/09 04:45:43;;;;;;;2.70;1.17;;;26.50;1.00;;;;;;5113474;28;20098;-59
2022/07/09 04:48:08;;;;;;;1.02;1.00;;;26.50;1.00;;;;;;5113629;28;20115;-59
2022/07/09 04:50:34;;;;;;;1.10;1.02;;;26.50;1.00;;;;;;5095183;28;20023;-60
2022/07/09 04:53:00;;;;;;;3.40;1.45;;;26.50;1.00;;;;;;5129852;27;20556;-60
2022/07/09 04:55:25;;;;;;;1.50;0.98;;;26.40;1.00;;;;;;5113582;28;20038;-60
2022/07/09 04:57:51;;;;;;;2.70;1.13;;;26.50;1.00;;;;;;5113900;28;20043;-60
2022/07/09 05:00:17;;;;;;;1.17;1.10;;;26.50;1.00;;;;;;5095309;28;20043;-59
2022/07/09 05:02:44;;;;;;;1.92;1.00;;;26.50;1.00;;;;;;5113883;28;20032;-58
2022/07/09 05:05:10;;;;;;;1.20;1.10;;;26.50;1.00;;;;;;5094353;28;20074;-59
2022/07/09 05:07:36;;;;;;;1.85;1.10;;;26.40;1.00;;;;;;5113874;28;20035;-60
2022/07/09 05:10:02;;;;;;;1.75;1.15;;;26.50;1.00;;;;;;5113142;28;20485;-60
2022/07/09 05:12:32;;;;;;;1.17;1.00;;;26.40;1.00;;;;;;5113743;28;20067;-59
2022/07/09 05:14:57;;;;;;;1.67;1.33;;;26.50;1.00;;;;;;5109883;28;20081;-60
2022/07/09 05:17:24;;;;;;;1.20;1.10;;;26.50;1.00;;;;;;5112476;28;20426;-59
2022/07/09 05:19:50;;;;;;;1.23;1.10;;;26.40;1.00;;;;;;5113638;28;20035;-59
2022/07/09 05:22:16;;;;;;;2.13;1.02;;;26.40;1.00;;;;;;5112945;28;20145;-59
2022/07/09 05:24:41;;;;;;;1.92;1.50;;;26.50;1.00;;;;;;5113366;28;20126;-59
2022/07/09 05:27:09;;;;;;;1.75;1.13;;;26.50;1.00;;;;;;5112763;28;20476;-59
2022/07/09 05:29:35;;;;;;;2.63;1.23;;;26.50;1.00;;;;;;5113379;28;20016;-60
2022/07/09 05:32:00;;;;;;;1.40;1.30;;;26.40;1.00;;;;;;5112324;28;20466;-59
2022/07/09 05:34:26;;;;;;;2.85;1.40;;;26.50;1.00;;;;;;5094723;28;20106;-59
2022/07/09 05:36:52;;;;;;;2.67;1.35;;;26.50;1.00;;;;;;5112136;28;20137;-60
2022/07/09 05:39:18;;;;;;;4.07;1.50;;;26.60;1.00;;;;;;5112285;28;20027;-60
2022/07/09 05:41:44;;;;;;;1.67;1.50;;;26.50;1.00;;;;;;5109470;28;20027;-60
2022/07/09 05:44:09;;;;;;;2.60;1.48;;;26.50;1.00;;;;;;5113030;28;20015;-60
2022/07/09 05:46:35;;;;;;;2.47;1.27;;;26.60;1.00;;;;;;5111634;28;20088;-60
2022/07/09 05:49:01;;;;;;;1.90;1.48;;;26.60;1.00;;;;;;5113120;28;20090;-60
2022/07/09 05:51:27;;;;;;;1.58;1.33;;;26.50;1.00;;;;;;5112195;28;20032;-60
2022/07/09 05:53:53;;;;;;;1.60;1.50;;;26.60;1.00;;;;;;5112737;28;20545;-60
2022/07/09 05:56:19;;;;;;;2.30;1.65;;;26.60;1.00;;;;;;5111968;28;20384;-60
2022/07/09 05:58:44;;;;;;;3.05;1.77;;;26.60;1.00;;;;;;5113190;28;20031;-60
2022/07/09 06:01:11;;;;;;;4.22;1.80;;;26.60;1.00;;;;;;5111945;28;20330;-60
2022/07/09 06:03:37;;;;;;;2.70;1.50;;;26.70;1.00;;;;;;5112840;28;20026;-60
2022/07/09 06:06:02;;;;;;;2.72;1.33;;;26.80;1.00;;;;;;5111241;28;20110;-60
2022/07/09 06:08:28;;;;;;;1.73;1.63;;;26.90;1.00;;;;;;5112416;28;20027;-60
2022/07/09 06:10:54;;;;;;;1.40;1.30;;;27.00;1.00;;;;;;5111450;28;20027;-60
2022/07/09 06:13:19;;;;;;;2.97;1.50;;;26.90;1.00;;;;;;5093603;28;20028;-60
2022/07/09 06:15:45;;;;;;;4.20;1.35;;;26.70;1.00;;;;;;5110558;28;20031;-60
2022/07/09 06:18:11;;;;;;;4.78;1.55;;;26.70;1.00;;;;;;5095059;28;20401;-60
2022/07/09 06:20:37;;;;;;;3.58;1.70;;;26.70;1.00;;;;;;5108410;28;20059;-60
2022/07/09 06:23:02;;;;;;;2.55;1.60;;;26.80;1.00;;;;;;5110738;28;20352;-59
2022/07/09 06:25:28;;;;;;;3.40;1.50;;;26.80;1.00;;;;;;5111051;28;20040;-60
2022/07/09 06:27:54;;;;;;;2.83;2.05;;;26.70;1.00;;;;;;5111736;28;20381;-60
2022/07/09 06:30:20;;;;;;;2.08;1.45;;;26.80;1.00;;;;;;5111725;28;20024;-60
2022/07/09 06:32:45;;;;;;;3.00;1.60;;;26.80;1.00;;;;;;5111336;28;20548;-60
2022/07/09 06:35:11;;;;;;;2.90;1.77;;;26.80;1.00;;;;;;5111877;28;20456;-60
2022/07/09 06:37:36;;;;;;;3.70;1.65;;;26.90;1.00;;;;;;5111159;28;20028;-61
2022/07/09 06:40:03;;;;;;;2.15;1.58;;;26.90;1.00;;;;;;5111671;28;20033;-61
2022/07/09 06:42:29;;;;;;;2.95;1.55;;;27.00;1.00;;;;;;5110818;28;20026;-60
2022/07/09 06:44:54;;;;;;;1.50;1.38;;;27.00;1.00;;;;;;5110980;28;20035;-61
2022/07/09 06:47:20;;;;;;;3.95;1.63;;;26.90;1.00;;;;;;5110101;28;20481;-59
2022/07/09 06:49:46;;;;;;;4.38;1.50;;;26.90;1.00;;;;;;5111618;28;20031;-61
2022/07/09 06:52:12;;;;;;;5.28;1.92;;;27.00;1.00;;;;;;5110852;28;20035;-60
2022/07/09 06:54:37;;;;;;;2.40;1.70;;;26.80;1.00;;;;;;5111669;28;20422;-61
2022/07/09 06:57:04;;;;;;;3.40;1.80;;;26.90;1.00;;;;;;5110304;28;20030;-59
2022/07/09 06:59:29;;;;;;;3.40;1.85;;;26.90;1.00;;;;;;5106807;28;20030;-59
2022/07/09 07:01:55;;;;;;;3.75;1.67;;;26.90;1.00;;;;;;5110890;28;20103;-60
2022/07/09 07:04:21;;;;;;;3.65;1.85;;;27.00;1.00;;;;;;5111427;28;20031;-59
2022/07/09 07:06:48;;;;;;;4.45;1.70;;;27.00;1.00;;;;;;5110819;28;20015;-59
2022/07/09 07:09:17;;;;;;;1.88;1.77;;;27.10;1.00;;;;;;5112070;28;20043;-60
2022/07/09 07:11:46;;;;;;;2.85;1.83;;;27.00;1.00;;;;;;5084444;28;20051;-60
2022/07/09 07:14:12;;;;;;;3.17;1.50;;;27.00;1.00;;;;;;5109545;28;20028;-60
2022/07/09 07:16:37;;;;;;;2.67;1.35;;;27.00;1.00;;;;;;5111247;28;20035;-59
2022/07/09 07:19:03;;;;;;;2.78;1.27;;;27.10;1.00;;;;;;5111737;28;20030;-60
2022/07/09 07:21:29;;;;;;;2.28;1.67;;;27.00;1.00;;;;;;5092518;28;20111;-59
2022/07/09 07:23:54;;;;;;;1.48;1.35;;;27.30;1.00;;;;;;5111593;28;20107;-59
2022/07/09 07:26:20;;;;;;;3.75;1.63;;;27.30;1.00;;;;;;5111335;28;20138;-61
2022/07/09 07:28:46;;;;;;;1.50;1.30;;;27.40;1.00;;;;;;5112103;28;20055;-60
2022/07/09 07:31:11;;;;;;;1.40;1.30;;;27.50;1.00;;;;;;5110702;28;20024;-60
2022/07/09 07:33:38;;;;;;;2.30;1.70;;;27.50;1.00;;;;;;5111963;28;20032;-60
2022/07/09 07:36:04;;;;;;;1.55;1.45;;;27.50;1.00;;;;;;5110983;28;20031;-61
2022/07/09 07:38:30;;;;;;;4.15;1.75;;;27.60;1.00;;;;;;5110329;28;20118;-59
2022/07/09 07:40:55;;;;;;;4.15;1.65;;;27.50;1.00;;;;;;5110969;28;20011;-58
2022/07/09 07:43:21;;;;;;;1.73;1.27;;;27.60;1.00;;;;;;5079466;28;20055;-59
2022/07/09 07:45:46;;;;;;;2.35;1.63;;;27.70;1.00;;;;;;5111806;28;20090;-60
2022/07/09 07:48:13;;;;;;;3.25;1.70;;;27.70;1.00;;;;;;5110922;28;20392;-59
2022/07/09 07:50:38;;;;;;;3.70;1.80;;;27.70;1.00;;;;;;5111856;28;20016;-60
2022/07/09 07:53:07;;;;;;;4.32;1.75;;;27.70;1.00;;;;;;5091825;28;20097;-59
2022/07/09 07:55:33;;;;;;;2.53;1.58;;;27.80;1.00;;;;;;5100093;28;20028;-59
2022/07/09 07:57:59;;;;;;;1.92;1.50;;;27.80;1.00;;;;;;5111160;28;20050;-58
2022/07/09 08:00:25;;;;;;;1.92;1.10;;;27.80;1.00;;;;;;5115366;28;20087;-58
2022/07/09 08:02:51;;;;;;;1.67;1.15;;;27.80;1.00;;;;;;5114162;28;20039;-58
2022/07/09 08:05:17;;;;;;;1.67;1.30;;;27.80;1.00;;;;;;5115054;28;20032;-57
2022/07/09 08:07:42;;;;;;;3.63;1.40;;;27.80;1.00;;;;;;5112269;28;20028;-58
2022/07/09 08:10:08;;;;;;;1.38;1.20;;;27.80;1.00;;;;;;5111878;28;20035;-58
2022/07/09 08:12:34;;;;;;;2.17;1.33;;;27.90;1.00;;;;;;5112576;28;20505;-58
2022/07/09 08:15:00;;;;;;;4.47;1.27;;;28.00;1.00;;;;;;5115115;28;20084;-59
2022/07/09 08:17:25;;;;;;;3.35;1.23;;;28.00;1.00;;;;;;5114390;28;20520;-59
2022/07/09 08:19:51;;;;;;;1.60;1.27;;;28.00;1.00;;;;;;5114993;28;20020;-55
2022/07/09 08:22:17;;;;;;;1.55;1.45;;;28.10;1.00;;;;;;5108720;27;20106;-59
2022/07/09 08:24:43;;;;;;;2.35;1.40;;;28.10;1.00;;;;;;5098819;28;20069;-58
2022/07/09 08:27:08;;;;;;;1.17;1.08;;;28.20;1.00;;;;;;5115553;27;20062;-59
2022/07/09 08:29:34;;;;;;;4.53;1.50;;;28.20;1.00;;;;;;5114870;28;20027;-57
2022/07/09 08:32:00;;;;;;;1.40;1.30;;;28.10;1.00;;;;;;5095316;28;20031;-58
2022/07/09 08:34:26;;;;;;;5.57;1.88;;;28.00;1.00;;;;;;5114411;28;20024;-59
2022/07/09 08:36:51;;;;;;;2.35;1.70;;;28.20;1.00;;;;;;5113761;28;20106;-60
2022/07/09 08:39:17;;;;;;;2.92;1.52;;;28.30;1.00;;;;;;5114405;28;20055;-58
2022/07/09 08:41:43;;;;;;;3.30;1.40;;;28.30;1.00;;;;;;5113678;28;20016;-56
2022/07/09 08:44:12;;;;;;;3.05;1.75;;;28.20;1.00;;;;;;5114425;28;20063;-58
2022/07/09 08:46:39;;;;;;;1.63;1.52;;;28.20;1.00;;;;;;5116657;27;20023;-57
2022/07/09 08:49:06;;;;;;;3.08;1.63;;;28.20;1.00;;;;;;5116254;27;20027;-58
2022/07/09 08:51:33;;;;;;;2.67;1.80;;;28.10;1.00;;;;;;5096424;27;21696;-57
2022/07/09 08:54:00;;;;;;;4.72;1.45;;;28.20;1.00;;;;;;5114780;27;20106;-59
2022/07/09 08:56:26;;;;;;;2.20;1.35;;;28.40;1.00;;;;;;5115324;27;20567;-57
2022/07/09 08:58:51;;;;;;;4.15;1.50;;;28.40;1.00;;;;;;5115423;27;20019;-65
2022/07/09 09:01:17;;;;;;;2.90;1.38;;;28.40;1.00;;;;;;5114443;27;20039;-67
2022/07/09 09:03:43;;;;;;;1.70;1.00;;;28.50;1.00;;;;;;5114529;27;20092;-67
2022/07/09 09:06:11;;;;;;;5.50;1.40;;;28.50;1.00;;;;;;5114679;27;20477;-67
2022/07/09 09:08:41;;;;;;;1.63;1.52;;;28.50;1.00;;;;;;5113160;27;20024;-67
2022/07/09 09:11:13;;;;;;;3.97;1.42;;;28.60;1.00;;;;;;5112157;27;20030;-67
2022/07/09 09:13:47;;;;;;;1.90;1.50;;;28.80;1.00;;;;;;5113477;27;20024;-65
2022/07/09 09:16:15;;;;;;;2.35;1.52;;;28.70;1.00;;;;;;5111708;27;20024;-65
2022/07/09 09:18:42;;;;;;;1.40;1.10;;;28.80;1.00;;;;;;5114319;27;20027;-65
2022/07/09 09:21:10;;;;;;;1.88;1.40;;;28.80;1.00;;;;;;5114433;27;20023;-65
2022/07/09 09:23:47;;;;;;;3.90;1.88;;;28.90;1.00;;;;;;5111795;27;20023;-64
2022/07/09 09:26:14;;;;;;;4.43;2.10;;;29.00;1.00;;;;;;5115225;27;20027;-65
2022/07/09 09:28:56;;;;;;;0.80;0.80;;;29.10;1.00;;;;;;5112933;27;20564;-65
2022/07/09 09:31:28;;;;;;;1.92;1.15;;;29.10;1.00;;;;;;5113595;27;20485;-63
2022/07/09 09:33:56;;;;;;;6.03;0.90;;;29.10;1.00;;;;;;5109908;27;20034;-64
2022/07/09 09:36:31;;;;;;;4.78;1.35;;;29.10;1.00;;;;;;5113294;27;20049;-65
2022/07/09 09:39:26;;;;;;;6.18;1.63;;;29.10;1.00;;;;;;5108520;27;20032;-67
2022/07/09 09:42:00;;;;;;;2.10;1.13;;;29.00;1.00;;;;;;5125922;27;20031;-65
2022/07/09 09:44:29;;;;;;;1.98;1.20;;;29.10;1.00;;;;;;5095860;27;20396;-65
2022/07/09 09:46:56;;;;;;;3.95;1.50;;;29.20;1.00;;;;;;5111916;27;20027;-65
2022/07/09 09:49:22;;;;;;;5.50;2.42;;;29.20;1.00;;;;;;5112681;27;20083;-64
2022/07/09 09:51:50;;;;;;;5.68;1.50;;;29.20;1.00;;;;;;5112154;27;20053;-65
2022/07/09 09:54:17;;;;;;;3.83;1.10;;;29.40;1.00;;;;;;5113548;27;20038;-65
2022/07/09 09:56:53;;;;;;;2.88;1.00;;;29.30;1.00;;;;;;5093787;27;20080;-64
2022/07/09 09:59:19;;;;;;;1.70;1.60;;;29.30;1.00;;;;;;5115191;27;20035;-65
2022/07/09 10:01:46;;;;;;;2.17;1.73;;;29.30;1.00;;;;;;5112373;27;20168;-65
2022/07/09 10:04:13;;;;;;;0.85;0.85;;;29.40;1.00;;;;;;5110614;27;20016;-65
2022/07/09 10:06:40;;;;;;;2.50;1.45;;;29.50;1.00;;;;;;5112940;27;20074;-65
2022/07/09 10:09:11;;;;;;;3.33;1.35;;;29.70;1.00;;;;;;5112890;27;20027;-65
2022/07/09 10:11:49;;;;;;;2.47;1.10;;;29.50;1.00;;;;;;5112775;27;20432;-63
2022/07/09 10:14:30;;;;;;;1.08;1.00;;;29.90;1.00;;;;;;5111208;27;20051;-64
2022/07/09 10:16:56;;;;;;;1.48;1.10;;;30.10;1.00;;;;;;5111083;27;20028;-64
2022/07/09 10:19:26;;;;;;;1.67;1.10;;;30.20;1.00;;;;;;5112173;27;20338;-64
2022/07/09 10:22:14;;;;;;;1.48;1.05;;;30.20;1.00;;;;;;5111600;27;20020;-65
2022/07/09 10:24:45;;;;;;;1.83;1.10;;;30.20;1.00;;;;;;5112297;27;20051;-64
2022/07/09 10:27:12;;;;;;;2.50;1.20;;;30.20;1.00;;;;;;5103838;28;20393;-66
2022/07/09 10:29:58;;;;;;;1.02;1.00;;;30.20;1.00;;;;;;5111372;28;20027;-65
2022/07/09 10:32:32;;;;;;;1.48;0.98;;;30.30;1.00;;;;;;5111499;28;20077;-65
2022/07/09 10:35:05;;;;;;;0.95;0.88;;;30.40;1.00;;;;;;5110220;28;20106;-64
2022/07/09 10:37:35;;;;;;;1.48;1.35;;;30.50;1.00;;;;;;5110443;28;20058;-65
2022/07/09 10:40:18;;;;;;;3.55;1.20;;;30.50;1.00;;;;;;5112352;28;20496;-64
2022/07/09 10:42:56;;;;;;;2.97;1.30;;;30.50;1.00;;;;;;5110984;28;20049;-63
2022/07/09 10:45:35;;;;;;;2.03;1.30;;;30.50;1.00;;;;;;5093766;28;20020;-63
2022/07/09 10:48:03;;;;;;;1.48;1.10;;;30.70;1.00;;;;;;5111156;28;20059;-63
2022/07/09 10:50:31;;;;;;;1.58;1.30;;;31.00;1.00;;;;;;5112117;28;20102;-63
2022/07/09 10:52:59;;;;;;;2.70;1.50;;;31.00;1.00;;;;;;5110499;28;20034;-58
2022/07/09 10:55:28;;;;;;;1.40;1.00;;;31.20;1.00;;;;;;5093913;28;20016;-56
2022/07/09 10:57:55;;;;;;;1.38;1.27;;;31.00;1.00;;;;;;5111635;28;20043;-58
2022/07/09 11:00:26;;;;;;;1.65;1.52;;;31.20;1.00;;;;;;5112149;28;20441;-57
2022/07/09 11:03:01;;;;;;;1.45;1.35;;;31.10;1.00;;;;;;5107709;28;20032;-57
2022/07/09 11:05:28;;;;;;;3.22;1.70;;;31.30;1.00;;;;;;5086168;28;20050;-57
2022/07/09 11:08:07;;;;;;;2.50;1.20;;;31.40;1.00;;;;;;5108083;28;20032;-58
2022/07/09 11:10:36;;;;;;;2.22;1.10;;;31.60;1.00;;;;;;5106384;28;20518;-57
2022/07/09 11:13:03;;;;;;;1.90;1.00;;;31.80;1.00;;;;;;5089819;28;20043;-56
2022/07/09 11:15:33;;;;;;;1.33;1.23;;;31.60;1.00;;;;;;5091839;28;20028;-58
2022/07/09 11:18:01;;;;;;;1.15;1.02;;;31.50;1.00;;;;;;5109165;28;20039;-58
2022/07/09 11:20:28;;;;;;;1.42;1.35;;;31.70;1.00;;;;;;5108013;28;20492;-58
2022/07/09 11:22:56;;;;;;;4.18;1.65;;;31.70;1.00;;;;;;5106221;28;20035;-52
2022/07/09 11:25:26;;;;;;;2.10;1.35;;;31.60;1.00;;;;;;5109438;28;20044;-56
2022/07/09 11:27:56;;;;;;;1.35;1.33;;;32.10;1.00;;;;;;5100971;28;20452;-51
2022/07/09 11:30:22;;;;;;;1.33;1.23;;;33.20;1.00;;;;;;5109160;28;20601;-53
2022/07/09 11:32:49;;;;;;;3.20;1.40;;;36.20;1.00;;;;;;5102831;28;20094;-54
2022/07/09 11:35:28;;;;;;;1.60;1.50;;;37.30;1.00;;;;;;5113395;28;20039;-55
2022/07/09 11:38:01;;;;;;;3.00;1.67;;;37.50;1.00;;;;;;5113421;28;20411;-56
2022/07/09 11:40:28;;;;;;;1.63;1.45;;;36.60;1.00;;;;;;5115265;28;20031;-57
2022/07/09 11:42:54;;;;;;;1.58;1.35;;;36.40;1.00;;;;;;5111631;27;20028;-57
2022/07/09 11:45:21;;;;;;;2.35;1.60;;;35.60;1.00;;;;;;5113512;27;20027;-57
2022/07/09 11:47:47;;;;;;;2.10;1.98;;;35.40;1.00;;;;;;5109711;27;20035;-57
2022/07/09 11:50:14;;;;;;;2.55;2.08;;;37.40;1.00;;;;;;5111680;27;20030;-56
2022/07/09 11:52:48;;;;;;;2.30;2.20;;;38.10;1.00;;;;;;5112959;27;20027;-57
2022/07/09 11:55:16;;;;;;;2.28;2.17;;;40.40;1.00;;;;;;5112501;28;20438;-54
2022/07/09 11:57:52;;;;;;;2.70;2.50;;;42.30;1.00;;;;;;5111996;27;20020;-56
2022/07/09 12:00:23;;;;;;;2.13;2.03;;;42.90;1.00;;;;;;5114389;28;20035;-57
2022/07/09 12:02:49;;;;;;;2.90;2.60;;;42.40;1.00;;;;;;5109638;27;20091;-58
2022/07/09 12:05:35;;;;;;;3.25;3.03;;;42.80;1.00;;;;;;5112210;28;20193;-56
2022/07/09 12:08:04;;;;;;;3.70;3.00;;;43.40;1.00;;;;;;5114333;27;20016;-57
2022/07/09 12:10:35;;;;;;;2.50;2.30;;;42.90;1.00;;;;;;5109301;27;20024;-58
2022/07/09 12:13:03;;;;;;;2.50;2.40;;;40.60;1.00;;;;;;5112521;27;20026;-58
2022/07/09 12:15:29;;;;;;;2.70;2.60;;;39.40;1.00;;;;;;5096059;27;20027;-59
2022/07/09 12:17:59;;;;;;;3.10;2.90;;;38.60;1.00;;;;;;5112859;27;20096;-58
2022/07/09 12:20:28;;;;;;;4.40;2.90;;;37.80;1.00;;;;;;5111849;27;20028;-54
2022/07/09 12:22:54;;;;;;;2.67;2.47;;;37.80;1.00;;;;;;5112679;27;20056;-56
2022/07/09 12:25:20;;;;;;;3.22;3.00;;;37.70;1.00;;;;;;5110182;28;20035;-57
2022/07/09 12:27:47;;;;;;;3.70;3.40;;;38.30;1.00;;;;;;5094679;28;20190;-57
2022/07/09 12:30:13;;;;;;;3.10;3.00;;;39.20;1.00;;;;;;5111805;28;20031;-58
2022/07/09 12:32:39;;;;;;;2.88;2.38;;;39.80;1.00;;;;;;5106833;27;20138;-58
2022/07/09 12:35:06;;;;;;;6.18;2.75;;;38.50;1.00;;;;;;5111600;28;20028;-58
2022/07/09 12:37:32;;;;;;;2.45;2.33;;;37.00;1.00;;;;;;5113473;27;20036;-58
2022/07/09 12:39:57;;;;;;;2.00;1.90;;;36.60;1.00;;;;;;5110363;27;20038;-57
2022/07/09 12:42:23;;;;;;;2.65;2.10;;;35.60;1.00;;;;;;5111255;28;20387;-58
2022/07/09 12:44:50;;;;;;;2.25;2.05;;;35.30;1.00;;;;;;5112470;28;20429;-55
2022/07/09 12:47:15;;;;;;;2.58;2.38;;;35.30;1.00;;;;;;5113348;28;20028;-58
2022/07/09 12:49:41;;;;;;;2.88;2.10;;;34.80;1.00;;;;;;5112430;28;20122;-57
2022/07/09 12:52:07;;;;;;;2.17;2.08;;;35.00;1.00;;;;;;5112534;28;20107;-57
2022/07/09 12:54:33;;;;;;;1.92;1.83;;;35.00;1.00;;;;;;5092781;28;20475;-58
2022/07/09 12:56:58;;;;;;;3.47;2.00;;;34.50;1.00;;;;;;5112846;27;20032;-55